Time,TemperatureF,DewpointF,PressureIn,WindDirection,WindDirectionDegrees,WindSpeedMPH,WindSpeedGustMPH,Humidity,HourlyPrecipIn,Conditions,Clouds,dailyrainin,SoftwareType,DateUTC
2013-05-06 00:00:00,51.3,45.0,30.21,ENE,72,5.4,5.4,79,0.00,,---,0.00,VWS V14.01,2013-05-06 04:00:00,
2013-05-06 00:01:00,51.3,45.0,30.21,East,88,5.8,5.8,79,0.00,,---,0.00,VWS V14.01,2013-05-06 04:01:00,
2013-05-06 00:02:00,51.4,45.2,30.21,ENE,73,4.0,5.8,79,0.00,,---,0.00,VWS V14.01,2013-05-06 04:02:00,
2013-05-06 00:04:00,51.3,45.0,30.21,East,97,6.3,8.1,79,0.00,,---,0.00,VWS V14.01,2013-05-06 04:04:00,
2013-05-06 00:09:00,51.3,45.0,30.21,NE,56,6.7,8.3,79,0.00,,---,0.00,VWS V14.01,2013-05-06 04:09:00,
2013-05-06 00:13:00,51.4,45.5,30.21,ENE,70,8.1,8.1,80,0.00,,---,0.00,VWS V14.01,2013-05-06 04:13:00,
2013-05-06 00:19:00,51.4,45.5,30.21,ENE,73,8.3,8.3,80,0.00,,---,0.00,VWS V14.01,2013-05-06 04:19:00,
2013-05-06 00:24:00,51.3,45.3,30.21,East,96,8.1,10.5,80,0.00,,---,0.00,VWS V14.01,2013-05-06 04:24:00,
2013-05-06 00:30:00,51.4,45.8,30.21,East,101,5.8,8.3,81,0.00,,---,0.00,VWS V14.01,2013-05-06 04:30:00,
2013-05-06 00:35:00,51.4,45.8,30.21,ENE,59,8.1,11.0,81,0.00,,---,0.00,VWS V14.01,2013-05-06 04:35:00,
2013-05-06 00:40:00,51.4,45.8,30.21,ENE,61,8.7,8.7,81,0.00,,---,0.00,VWS V14.01,2013-05-06 04:40:00,
2013-05-06 00:45:00,51.4,45.8,30.21,ENE,63,7.6,9.2,81,0.00,,---,0.00,VWS V14.01,2013-05-06 04:45:00,
2013-05-06 00:50:00,51.3,45.6,30.21,ENE,78,5.4,5.8,81,0.00,,---,0.00,VWS V14.01,2013-05-06 04:50:00,
2013-05-06 00:55:00,51.3,45.6,30.21,ENE,75,4.0,7.6,81,0.00,,---,0.00,VWS V14.01,2013-05-06 04:55:00,
2013-05-06 01:00:00,51.3,46.0,30.21,ENE,73,11.0,11.0,82,0.00,,---,0.00,VWS V14.01,2013-05-06 05:00:00,
2013-05-06 01:05:00,51.3,46.0,30.21,East,80,7.6,8.7,82,0.00,,---,0.00,VWS V14.01,2013-05-06 05:05:00,
2013-05-06 01:10:00,51.3,46.0,30.21,ENE,62,4.0,5.8,82,0.00,,---,0.00,VWS V14.01,2013-05-06 05:10:00,
2013-05-06 01:15:00,51.3,46.0,30.21,ENE,70,3.6,6.3,82,0.00,,---,0.00,VWS V14.01,2013-05-06 05:15:00,
2013-05-06 01:20:00,51.3,46.0,30.21,ENE,76,5.8,5.8,82,0.00,,---,0.00,VWS V14.01,2013-05-06 05:20:00,
2013-05-06 01:25:00,51.4,46.5,30.21,NNE,32,5.8,8.1,83,0.00,,---,0.00,VWS V14.01,2013-05-06 05:25:00,
2013-05-06 01:30:00,51.6,46.6,30.21,ENE,74,6.3,8.3,83,0.00,,---,0.00,VWS V14.01,2013-05-06 05:30:00,
2013-05-06 01:35:00,51.8,46.8,30.21,ENE,67,8.1,11.0,83,0.00,,---,0.00,VWS V14.01,2013-05-06 05:35:00,
2013-05-06 01:40:00,51.8,46.8,30.21,ENE,61,5.4,7.6,83,0.00,,---,0.00,VWS V14.01,2013-05-06 05:40:00,
2013-05-06 01:45:00,51.6,46.6,30.18,ENE,73,2.7,3.6,83,0.00,,---,0.00,VWS V14.01,2013-05-06 05:45:00,
2013-05-06 01:51:00,51.6,46.6,30.18,East,90,5.8,9.2,83,0.00,,---,0.00,VWS V14.01,2013-05-06 05:51:00,
2013-05-06 01:56:00,51.6,47.0,30.18,East,89,5.4,8.7,84,0.00,,---,0.00,VWS V14.01,2013-05-06 05:56:00,
2013-05-06 02:01:00,51.6,47.0,30.18,NE,42,5.8,8.3,84,0.00,,---,0.00,VWS V14.01,2013-05-06 06:01:00,
2013-05-06 02:06:00,51.6,47.0,30.18,ENE,75,5.4,10.1,84,0.00,,---,0.00,VWS V14.01,2013-05-06 06:06:00,
2013-05-06 02:11:00,51.4,46.8,30.18,ENE,74,10.5,13.2,84,0.00,,---,0.00,VWS V14.01,2013-05-06 06:11:00,
2013-05-06 02:16:00,51.6,47.0,30.18,East,100,8.1,11.0,84,0.00,,---,0.00,VWS V14.01,2013-05-06 06:16:00,
2013-05-06 02:21:00,51.4,46.8,30.18,ESE,110,10.5,11.0,84,0.00,,---,0.00,VWS V14.01,2013-05-06 06:21:00,
2013-05-06 02:26:00,51.4,46.8,30.18,ENE,73,10.5,10.5,84,0.00,,---,0.00,VWS V14.01,2013-05-06 06:26:00,
2013-05-06 02:31:00,51.4,47.1,30.18,ENE,63,8.1,12.3,85,0.00,,---,0.00,VWS V14.01,2013-05-06 06:31:00,
2013-05-06 02:36:00,51.4,47.1,30.18,ENE,75,11.0,11.0,85,0.00,,---,0.00,VWS V14.01,2013-05-06 06:36:00,
2013-05-06 02:41:00,51.6,47.3,30.18,ENE,74,4.9,4.9,85,0.00,,---,0.00,VWS V14.01,2013-05-06 06:41:00,
2013-05-06 02:46:00,51.6,47.3,30.18,East,82,7.6,8.7,85,0.00,,---,0.00,VWS V14.01,2013-05-06 06:46:00,
2013-05-06 02:51:00,51.8,47.1,30.18,ENE,77,6.3,7.6,84,0.00,,---,0.00,VWS V14.01,2013-05-06 06:51:00,
2013-05-06 02:56:00,51.6,47.3,30.18,ENE,70,5.8,8.3,85,0.00,,---,0.00,VWS V14.01,2013-05-06 06:56:00,
2013-05-06 03:01:00,51.8,47.1,30.18,East,86,8.7,9.2,84,0.00,,---,0.00,VWS V14.01,2013-05-06 07:01:00,
2013-05-06 03:06:00,51.8,47.1,30.18,ENE,63,8.7,9.6,84,0.00,,---,0.00,VWS V14.01,2013-05-06 07:06:00,
2013-05-06 03:11:00,51.8,47.1,30.18,ENE,71,8.7,8.7,84,0.00,,---,0.00,VWS V14.01,2013-05-06 07:11:00,
2013-05-06 03:16:00,51.8,47.1,30.18,ENE,62,12.8,12.8,84,0.00,,---,0.00,VWS V14.01,2013-05-06 07:16:00,
2013-05-06 03:21:00,51.8,47.1,30.18,ENE,58,8.1,11.0,84,0.00,,---,0.00,VWS V14.01,2013-05-06 07:21:00,
2013-05-06 03:26:00,52.0,47.3,30.18,ENE,68,3.6,10.5,84,0.00,,---,0.00,VWS V14.01,2013-05-06 07:26:00,
2013-05-06 03:31:00,52.0,47.3,30.18,ENE,72,10.1,10.1,84,0.00,,---,0.00,VWS V14.01,2013-05-06 07:31:00,
2013-05-06 03:36:00,52.0,47.3,30.18,NE,47,7.6,7.6,84,0.00,,---,0.00,VWS V14.01,2013-05-06 07:36:00,
2013-05-06 03:41:00,51.8,47.1,30.18,East,79,8.1,8.1,84,0.00,,---,0.00,VWS V14.01,2013-05-06 07:41:00,
2013-05-06 03:46:00,51.8,47.4,30.18,ENE,69,10.5,11.0,85,0.00,,---,0.00,VWS V14.01,2013-05-06 07:46:00,
2013-05-06 03:51:00,51.8,47.4,30.18,ENE,74,8.3,8.3,85,0.00,,---,0.00,VWS V14.01,2013-05-06 07:51:00,
2013-05-06 03:56:00,51.8,47.4,30.18,East,85,5.4,10.5,85,0.00,,---,0.00,VWS V14.01,2013-05-06 07:56:00,
2013-05-06 04:01:00,51.8,47.4,30.18,NE,54,13.2,13.2,85,0.00,,---,0.00,VWS V14.01,2013-05-06 08:01:00,
2013-05-06 04:06:00,51.8,47.4,30.18,ENE,78,10.5,10.5,85,0.00,,---,0.00,VWS V14.01,2013-05-06 08:06:00,
2013-05-06 04:11:00,51.8,47.4,30.18,East,81,9.2,15.4,85,0.00,,---,0.00,VWS V14.01,2013-05-06 08:11:00,
2013-05-06 04:16:00,51.8,47.8,30.18,ENE,65,10.5,10.5,86,0.00,,---,0.00,VWS V14.01,2013-05-06 08:16:00,
2013-05-06 04:21:00,51.8,47.8,30.18,ENE,66,8.3,8.3,86,0.00,,---,0.00,VWS V14.01,2013-05-06 08:21:00,
2013-05-06 04:26:00,51.8,47.8,30.18,ESE,122,13.2,13.2,86,0.00,,---,0.00,VWS V14.01,2013-05-06 08:26:00,
2013-05-06 04:31:00,52.0,47.9,30.18,NNE,22,10.5,10.5,86,0.00,,---,0.00,VWS V14.01,2013-05-06 08:31:00,
2013-05-06 04:36:00,52.0,48.2,30.18,ENE,74,10.5,11.0,87,0.00,,---,0.00,VWS V14.01,2013-05-06 08:36:00,
2013-05-06 04:41:00,52.0,48.2,30.18,East,82,8.1,8.3,87,0.00,,---,0.00,VWS V14.01,2013-05-06 08:41:00,
2013-05-06 04:46:00,52.2,48.4,30.18,ENE,59,8.3,8.3,87,0.00,,---,0.00,VWS V14.01,2013-05-06 08:46:00,
2013-05-06 04:51:00,52.2,48.4,30.18,ESE,105,6.3,6.3,87,0.00,,---,0.00,VWS V14.01,2013-05-06 08:51:00,
2013-05-06 04:56:00,52.2,48.4,30.18,ENE,64,7.6,7.6,87,0.00,,---,0.00,VWS V14.01,2013-05-06 08:56:00,
2013-05-06 05:01:00,52.3,48.3,30.18,NE,51,4.9,6.3,86,0.00,,---,0.00,VWS V14.01,2013-05-06 09:01:00,
2013-05-06 05:06:00,52.3,48.3,30.18,ENE,78,5.4,8.1,86,0.00,,---,0.00,VWS V14.01,2013-05-06 09:06:00,
2013-05-06 05:11:00,52.3,48.3,30.18,ENE,70,10.1,10.1,86,0.00,,---,0.00,VWS V14.01,2013-05-06 09:11:00,
2013-05-06 05:16:00,52.3,48.3,30.18,East,81,8.3,8.3,86,0.00,,---,0.00,VWS V14.01,2013-05-06 09:16:00,
2013-05-06 05:21:00,52.5,48.5,30.18,East,82,10.1,10.1,86,0.00,,---,0.00,VWS V14.01,2013-05-06 09:21:00,
2013-05-06 05:26:00,52.5,48.5,30.18,East,86,8.1,8.1,86,0.00,,---,0.00,VWS V14.01,2013-05-06 09:26:00,
2013-05-06 05:31:00,52.5,48.5,30.21,East,88,8.3,8.3,86,0.00,,---,0.00,VWS V14.01,2013-05-06 09:31:00,
2013-05-06 05:36:00,52.5,48.5,30.21,ENE,67,11.0,11.0,86,0.00,,---,0.00,VWS V14.01,2013-05-06 09:36:00,
2013-05-06 05:41:00,52.5,48.5,30.21,NE,52,8.1,8.7,86,0.00,,---,0.00,VWS V14.01,2013-05-06 09:41:00,
2013-05-06 05:46:00,52.5,48.5,30.21,East,82,10.1,13.2,86,0.00,,---,0.00,VWS V14.01,2013-05-06 09:46:00,
2013-05-06 05:51:00,52.5,48.5,30.21,East,81,4.0,6.3,86,0.00,,---,0.00,VWS V14.01,2013-05-06 09:51:00,
2013-05-06 05:56:00,52.7,48.6,30.21,East,85,5.8,6.3,86,0.00,,---,0.00,VWS V14.01,2013-05-06 09:56:00,
2013-05-06 06:01:00,52.7,48.6,30.21,East,93,8.7,8.7,86,0.00,,---,0.00,VWS V14.01,2013-05-06 10:01:00,
2013-05-06 06:06:00,52.7,48.3,30.21,ENE,76,7.6,10.5,85,0.00,,---,0.00,VWS V14.01,2013-05-06 10:06:00,
2013-05-06 06:11:00,52.7,48.3,30.21,ENE,63,8.1,8.1,85,0.00,,---,0.00,VWS V14.01,2013-05-06 10:11:00,
2013-05-06 06:16:00,52.7,48.3,30.21,NE,54,12.8,12.8,85,0.00,,---,0.00,VWS V14.01,2013-05-06 10:16:00,
2013-05-06 06:21:00,52.7,48.3,30.21,ESE,102,8.7,8.7,85,0.00,,---,0.00,VWS V14.01,2013-05-06 10:21:00,
2013-05-06 06:26:00,52.7,48.6,30.21,NNE,29,6.3,8.3,86,0.00,,---,0.00,VWS V14.01,2013-05-06 10:26:00,
2013-05-06 06:31:00,52.9,48.8,30.21,East,87,7.6,8.7,86,0.00,,---,0.00,VWS V14.01,2013-05-06 10:31:00,
2013-05-06 06:36:00,52.9,48.5,30.21,ENE,65,9.2,10.1,85,0.00,,---,0.00,VWS V14.01,2013-05-06 10:36:00,
2013-05-06 06:41:00,52.9,48.5,30.21,East,81,8.3,8.3,85,0.00,,---,0.00,VWS V14.01,2013-05-06 10:41:00,
2013-05-06 06:46:00,52.9,48.5,30.21,East,85,7.6,10.1,85,0.00,,---,0.00,VWS V14.01,2013-05-06 10:46:00,
2013-05-06 06:51:00,52.9,48.5,30.21,East,94,12.3,12.3,85,0.00,,---,0.00,VWS V14.01,2013-05-06 10:51:00,
2013-05-06 06:56:00,52.9,48.5,30.21,ENE,78,8.1,8.7,85,0.00,,---,0.00,VWS V14.01,2013-05-06 10:56:00,
2013-05-06 07:01:00,52.9,48.5,30.21,ENE,68,8.3,8.3,85,0.00,,---,0.00,VWS V14.01,2013-05-06 11:01:00,
2013-05-06 07:06:00,52.9,48.5,30.21,ENE,72,8.7,13.2,85,0.00,,---,0.00,VWS V14.01,2013-05-06 11:06:00,
2013-05-06 07:11:00,53.1,48.7,30.21,NE,45,8.3,8.3,85,0.00,,---,0.00,VWS V14.01,2013-05-06 11:11:00,
2013-05-06 07:16:00,53.1,48.7,30.21,ENE,64,11.4,11.4,85,0.00,,---,0.00,VWS V14.01,2013-05-06 11:16:00,
2013-05-06 07:21:00,53.1,48.7,30.21,ENE,68,8.1,12.3,85,0.00,,---,0.00,VWS V14.01,2013-05-06 11:21:00,
2013-05-06 07:26:00,53.2,48.8,30.21,East,81,8.1,13.6,85,0.00,,---,0.00,VWS V14.01,2013-05-06 11:26:00,
2013-05-06 07:31:00,53.2,48.8,30.21,ENE,68,8.7,11.4,85,0.00,,---,0.00,VWS V14.01,2013-05-06 11:31:00,
2013-05-06 07:36:00,53.2,48.8,30.21,ENE,77,11.9,11.9,85,0.00,,---,0.00,VWS V14.01,2013-05-06 11:36:00,
2013-05-06 07:41:00,53.4,48.7,30.21,ENE,76,10.1,13.2,84,0.00,,---,0.00,VWS V14.01,2013-05-06 11:41:00,
2013-05-06 07:46:00,53.4,48.7,30.21,ENE,59,5.4,8.7,84,0.00,,---,0.00,VWS V14.01,2013-05-06 11:46:00,
2013-05-06 07:51:00,53.6,48.9,30.21,ENE,71,13.2,13.2,84,0.00,,---,0.00,VWS V14.01,2013-05-06 11:51:00,
2013-05-06 07:56:00,53.6,48.6,30.21,ESE,111,10.1,13.2,83,0.00,,---,0.00,VWS V14.01,2013-05-06 11:56:00,
2013-05-06 08:01:00,53.6,48.6,30.21,ENE,75,8.7,13.6,83,0.00,,---,0.00,VWS V14.01,2013-05-06 12:01:00,
2013-05-06 08:06:00,53.6,48.6,30.21,NE,52,8.7,10.5,83,0.00,,---,0.00,VWS V14.01,2013-05-06 12:06:00,
2013-05-06 08:11:00,53.6,48.6,30.21,NE,49,8.7,10.1,83,0.00,,---,0.00,VWS V14.01,2013-05-06 12:11:00,
2013-05-06 08:16:00,53.6,48.2,30.21,NE,54,13.2,13.2,82,0.00,,---,0.00,VWS V14.01,2013-05-06 12:16:00,
2013-05-06 08:21:00,53.6,48.2,30.21,ENE,65,8.7,8.7,82,0.00,,---,0.00,VWS V14.01,2013-05-06 12:21:00,
2013-05-06 08:26:00,53.6,48.2,30.21,ENE,71,9.6,12.3,82,0.00,,---,0.00,VWS V14.01,2013-05-06 12:26:00,
2013-05-06 08:31:00,53.8,48.4,30.21,East,92,5.8,8.7,82,0.00,,---,0.00,VWS V14.01,2013-05-06 12:31:00,
2013-05-06 08:36:00,53.8,48.4,30.21,East,87,10.5,10.5,82,0.00,,---,0.00,VWS V14.01,2013-05-06 12:36:00,
2013-05-06 08:41:00,53.8,48.8,30.21,East,82,6.3,10.5,83,0.00,,---,0.00,VWS V14.01,2013-05-06 12:41:00,
2013-05-06 08:46:00,53.8,48.8,30.21,ENE,68,5.4,8.7,83,0.00,,---,0.00,VWS V14.01,2013-05-06 12:46:00,
2013-05-06 08:51:00,53.8,48.8,30.21,ENE,73,15.0,17.4,83,0.00,,---,0.00,VWS V14.01,2013-05-06 12:51:00,
2013-05-06 08:56:00,53.8,49.1,30.21,NNE,22,8.3,12.8,84,0.00,,---,0.00,VWS V14.01,2013-05-06 12:56:00,
2013-05-06 09:01:00,53.6,48.9,30.21,NE,56,8.7,13.2,84,0.00,,---,0.00,VWS V14.01,2013-05-06 13:01:00,
2013-05-06 09:06:00,53.6,48.6,30.21,NE,50,8.3,12.3,83,0.00,,---,0.00,VWS V14.01,2013-05-06 13:06:00,
2013-05-06 09:11:00,53.8,48.8,30.21,East,89,8.7,13.2,83,0.00,,---,0.00,VWS V14.01,2013-05-06 13:11:00,
2013-05-06 09:16:00,53.8,48.8,30.21,ENE,67,13.2,13.2,83,0.00,,---,0.00,VWS V14.01,2013-05-06 13:16:00,
2013-05-06 09:21:00,53.8,48.4,30.21,ENE,62,8.3,10.5,82,0.00,,---,0.00,VWS V14.01,2013-05-06 13:21:00,
2013-05-06 09:26:00,54.0,48.6,30.21,ENE,63,12.8,12.8,82,0.00,,---,0.00,VWS V14.01,2013-05-06 13:26:00,
2013-05-06 09:31:00,54.0,48.6,30.21,NE,51,15.0,15.0,82,0.00,,---,0.00,VWS V14.01,2013-05-06 13:31:00,
2013-05-06 09:36:00,54.1,48.8,30.21,ENE,72,8.7,15.4,82,0.00,,---,0.00,VWS V14.01,2013-05-06 13:36:00,
2013-05-06 09:41:00,54.5,49.1,30.21,ENE,67,15.4,15.4,82,0.00,,---,0.00,VWS V14.01,2013-05-06 13:41:00,
2013-05-06 09:46:00,54.7,49.0,30.21,ENE,74,5.8,13.2,81,0.00,,---,0.00,VWS V14.01,2013-05-06 13:46:00,
2013-05-06 09:51:00,54.7,49.0,30.21,East,80,13.2,13.2,81,0.00,,---,0.00,VWS V14.01,2013-05-06 13:51:00,
2013-05-06 09:56:00,54.5,48.5,30.21,East,81,8.3,13.2,80,0.00,,---,0.00,VWS V14.01,2013-05-06 13:56:00,
2013-05-06 10:01:00,54.5,48.5,30.21,ENE,66,15.4,15.4,80,0.00,,---,0.00,VWS V14.01,2013-05-06 14:01:00,
2013-05-06 10:06:00,54.5,48.5,30.21,ENE,65,8.1,13.2,80,0.00,,---,0.00,VWS V14.01,2013-05-06 14:06:00,
2013-05-06 10:11:00,54.5,48.5,30.21,NE,51,15.0,15.0,80,0.00,,---,0.00,VWS V14.01,2013-05-06 14:11:00,
2013-05-06 10:17:00,54.5,48.5,30.24,East,91,12.8,14.1,80,0.00,,---,0.00,VWS V14.01,2013-05-06 14:17:00,
2013-05-06 10:22:00,54.5,48.5,30.24,NE,39,7.6,11.9,80,0.00,,---,0.00,VWS V14.01,2013-05-06 14:22:00,
2013-05-06 10:27:00,54.7,48.6,30.24,ENE,69,8.3,8.7,80,0.00,,---,0.00,VWS V14.01,2013-05-06 14:27:00,
2013-05-06 10:32:00,54.9,48.8,30.24,East,82,11.0,12.8,80,0.00,,---,0.00,VWS V14.01,2013-05-06 14:32:00,
2013-05-06 10:37:00,54.7,48.6,30.24,ENE,57,10.5,12.8,80,0.00,,---,0.00,VWS V14.01,2013-05-06 14:37:00,
2013-05-06 10:42:00,54.5,48.5,30.24,ENE,58,8.7,12.8,80,0.00,,---,0.00,VWS V14.01,2013-05-06 14:42:00,
2013-05-06 10:47:00,54.5,48.5,30.24,East,85,10.5,15.0,80,0.00,,---,0.00,VWS V14.01,2013-05-06 14:47:00,
2013-05-06 10:52:00,54.5,48.5,30.24,ENE,77,8.3,13.6,80,0.00,,---,0.00,VWS V14.01,2013-05-06 14:52:00,
2013-05-06 10:57:00,54.7,48.6,30.24,ENE,74,11.0,14.1,80,0.00,,---,0.00,VWS V14.01,2013-05-06 14:57:00,
2013-05-06 11:02:00,54.7,48.6,30.24,ENE,58,10.5,16.3,80,0.00,,---,0.00,VWS V14.01,2013-05-06 15:02:00,
2013-05-06 11:07:00,54.9,48.8,30.24,East,82,10.1,12.8,80,0.00,,---,0.00,VWS V14.01,2013-05-06 15:07:00,
2013-05-06 11:12:00,54.9,48.8,30.21,ENE,77,7.6,13.2,80,0.00,,---,0.00,VWS V14.01,2013-05-06 15:12:00,
2013-05-06 11:17:00,55.0,49.0,30.21,ENE,73,13.2,14.5,80,0.00,,---,0.00,VWS V14.01,2013-05-06 15:17:00,
2013-05-06 11:22:00,54.9,48.8,30.21,ENE,73,10.5,16.8,80,0.00,,---,0.00,VWS V14.01,2013-05-06 15:22:00,
2013-05-06 11:27:00,55.2,49.2,30.21,ENE,74,12.8,12.8,80,0.00,,---,0.00,VWS V14.01,2013-05-06 15:27:00,
2013-05-06 11:32:00,55.2,49.2,30.21,ENE,77,8.3,13.2,80,0.00,,---,0.00,VWS V14.01,2013-05-06 15:32:00,
2013-05-06 11:37:00,55.2,49.2,30.21,NE,35,13.2,13.6,80,0.00,,---,0.00,VWS V14.01,2013-05-06 15:37:00,
2013-05-06 11:42:00,55.6,49.2,30.21,ENE,71,12.8,15.4,79,0.00,,---,0.00,VWS V14.01,2013-05-06 15:42:00,
2013-05-06 11:47:00,56.1,49.7,30.21,East,80,8.7,8.7,79,0.00,,---,0.00,VWS V14.01,2013-05-06 15:47:00,
2013-05-06 11:52:00,55.9,49.2,30.21,NE,49,15.4,15.4,78,0.00,,---,0.00,VWS V14.01,2013-05-06 15:52:00,
2013-05-06 11:57:00,56.1,49.4,30.21,NE,56,11.9,11.9,78,0.00,,---,0.00,VWS V14.01,2013-05-06 15:57:00,
2013-05-06 12:02:00,56.5,49.4,30.21,East,91,14.1,14.1,77,0.00,,---,0.00,VWS V14.01,2013-05-06 16:02:00,
2013-05-06 12:07:00,56.5,49.4,30.21,ENE,64,13.2,17.0,77,0.00,,---,0.00,VWS V14.01,2013-05-06 16:07:00,
2013-05-06 12:12:00,56.3,48.8,30.21,NE,42,13.6,13.6,76,0.00,,---,0.00,VWS V14.01,2013-05-06 16:12:00,
2013-05-06 12:17:00,55.9,48.5,30.21,ENE,68,8.7,15.4,76,0.00,,---,0.00,VWS V14.01,2013-05-06 16:17:00,
2013-05-06 12:22:00,55.8,48.3,30.21,East,97,11.0,12.3,76,0.00,,---,0.00,VWS V14.01,2013-05-06 16:22:00,
2013-05-06 12:27:00,55.9,48.8,30.21,ENE,67,10.5,10.5,77,0.00,,---,0.00,VWS V14.01,2013-05-06 16:27:00,
2013-05-06 12:32:00,55.9,48.8,30.21,NE,46,10.5,10.5,77,0.00,,---,0.00,VWS V14.01,2013-05-06 16:32:00,
2013-05-06 12:37:00,55.6,48.5,30.21,NNE,31,10.5,10.5,77,0.00,,---,0.00,VWS V14.01,2013-05-06 16:37:00,
2013-05-06 12:42:00,55.4,48.3,30.21,ENE,60,8.1,12.8,77,0.00,,---,0.00,VWS V14.01,2013-05-06 16:42:00,
2013-05-06 12:47:00,55.9,49.2,30.21,NE,46,11.0,11.0,78,0.00,,---,0.00,VWS V14.01,2013-05-06 16:47:00,
2013-05-06 12:52:00,55.9,48.8,30.21,ENE,60,11.4,11.4,77,0.00,,---,0.00,VWS V14.01,2013-05-06 16:52:00,
2013-05-06 12:57:00,55.9,48.8,30.21,ENE,71,11.0,11.0,77,0.00,,---,0.00,VWS V14.01,2013-05-06 16:57:00,
2013-05-06 13:02:00,56.3,49.2,30.21,East,83,11.0,11.0,77,0.00,,---,0.00,VWS V14.01,2013-05-06 17:02:00,
2013-05-06 13:07:00,56.5,49.0,30.21,ENE,64,15.4,15.4,76,0.00,,---,0.00,VWS V14.01,2013-05-06 17:07:00,
2013-05-06 13:12:00,56.1,48.7,30.21,ENE,58,10.5,13.2,76,0.00,,---,0.00,VWS V14.01,2013-05-06 17:12:00,
2013-05-06 13:17:00,56.3,48.8,30.21,NE,54,6.3,6.3,76,0.00,,---,0.00,VWS V14.01,2013-05-06 17:17:00,
2013-05-06 13:22:00,56.8,49.4,30.21,ENE,69,8.1,8.3,76,0.00,,---,0.00,VWS V14.01,2013-05-06 17:22:00,
2013-05-06 13:27:00,57.2,49.0,30.21,NE,46,11.0,11.0,74,0.00,,---,0.00,VWS V14.01,2013-05-06 17:27:00,
2013-05-06 13:32:00,57.6,49.3,30.21,NE,50,8.3,8.3,74,0.00,,---,0.00,VWS V14.01,2013-05-06 17:32:00,
2013-05-06 13:37:00,58.1,49.9,30.21,NE,46,10.5,10.5,74,0.00,,---,0.00,VWS V14.01,2013-05-06 17:37:00,
2013-05-06 13:42:00,58.3,49.7,30.18,East,79,7.6,10.5,73,0.00,,---,0.00,VWS V14.01,2013-05-06 17:42:00,
2013-05-06 13:47:00,58.8,49.8,30.18,ESE,102,7.6,12.3,72,0.00,,---,0.00,VWS V14.01,2013-05-06 17:47:00,
2013-05-06 13:52:00,59.0,49.6,30.18,NE,48,13.2,13.2,71,0.00,,---,0.00,VWS V14.01,2013-05-06 17:52:00,
2013-05-06 13:57:00,59.2,49.8,30.18,ENE,73,6.3,8.7,71,0.00,,---,0.00,VWS V14.01,2013-05-06 17:57:00,
2013-05-06 14:02:00,58.8,49.5,30.18,ENE,73,14.1,14.1,71,0.00,,---,0.00,VWS V14.01,2013-05-06 18:02:00,
2013-05-06 14:07:00,58.6,49.3,30.18,NE,51,11.0,11.9,71,0.00,,---,0.00,VWS V14.01,2013-05-06 18:07:00,
2013-05-06 14:12:00,58.5,49.1,30.18,East,83,15.0,15.4,71,0.00,,---,0.00,VWS V14.01,2013-05-06 18:12:00,
2013-05-06 14:17:00,58.3,48.9,30.18,ENE,58,13.2,13.2,71,0.00,,---,0.00,VWS V14.01,2013-05-06 18:17:00,
2013-05-06 14:22:00,58.3,49.3,30.18,East,85,5.4,5.4,72,0.00,,---,0.00,VWS V14.01,2013-05-06 18:22:00,
2013-05-06 14:27:00,58.1,49.1,30.18,NE,56,7.6,9.6,72,0.00,,---,0.00,VWS V14.01,2013-05-06 18:27:00,
2013-05-06 14:32:00,58.1,49.1,30.18,East,80,6.3,8.3,72,0.00,,---,0.00,VWS V14.01,2013-05-06 18:32:00,
2013-05-06 14:37:00,58.1,49.1,30.18,ENE,71,8.1,12.8,72,0.00,,---,0.00,VWS V14.01,2013-05-06 18:37:00,
2013-05-06 14:42:00,58.1,49.1,30.18,East,96,9.2,12.8,72,0.00,,---,0.00,VWS V14.01,2013-05-06 18:42:00,
2013-05-06 14:47:00,58.3,49.3,30.18,East,97,13.6,13.6,72,0.00,,---,0.00,VWS V14.01,2013-05-06 18:47:00,
2013-05-06 14:52:00,58.5,49.5,30.18,East,84,10.1,11.4,72,0.00,,---,0.00,VWS V14.01,2013-05-06 18:52:00,
2013-05-06 14:57:00,58.6,49.7,30.18,ENE,60,11.4,15.0,72,0.00,,---,0.00,VWS V14.01,2013-05-06 18:57:00,
2013-05-06 15:02:00,59.0,49.6,30.18,East,81,10.1,14.5,71,0.00,,---,0.00,VWS V14.01,2013-05-06 19:02:00,
2013-05-06 15:07:00,59.4,50.0,30.18,ENE,73,16.3,16.3,71,0.00,,---,0.00,VWS V14.01,2013-05-06 19:07:00,
2013-05-06 15:12:00,59.2,49.4,30.18,ENE,75,11.9,13.2,70,0.00,,---,0.00,VWS V14.01,2013-05-06 19:12:00,
2013-05-06 15:17:00,59.0,49.2,30.18,East,96,10.1,12.3,70,0.00,,---,0.00,VWS V14.01,2013-05-06 19:17:00,
2013-05-06 15:22:00,58.8,49.5,30.18,ENE,64,9.2,13.2,71,0.00,,---,0.00,VWS V14.01,2013-05-06 19:22:00,
2013-05-06 15:27:00,58.6,49.3,30.18,East,90,10.5,10.5,71,0.00,,---,0.00,VWS V14.01,2013-05-06 19:27:00,
2013-05-06 15:32:00,58.1,48.8,30.18,East,99,10.1,12.8,71,0.00,,---,0.00,VWS V14.01,2013-05-06 19:32:00,
2013-05-06 15:37:00,58.1,49.1,30.18,East,80,8.1,10.1,72,0.00,,---,0.00,VWS V14.01,2013-05-06 19:37:00,
2013-05-06 15:42:00,58.3,49.3,30.18,East,79,12.8,12.8,72,0.00,,---,0.00,VWS V14.01,2013-05-06 19:42:00,
2013-05-06 15:47:00,57.9,49.0,30.18,East,87,6.3,7.6,72,0.00,,---,0.00,VWS V14.01,2013-05-06 19:47:00,
2013-05-06 15:52:00,57.7,48.8,30.18,ENE,74,10.1,13.2,72,0.00,,---,0.00,VWS V14.01,2013-05-06 19:52:00,
2013-05-06 15:57:00,57.7,48.8,30.15,ENE,70,11.0,11.0,72,0.00,,---,0.00,VWS V14.01,2013-05-06 19:57:00,
2013-05-06 16:02:00,57.9,49.3,30.15,NE,45,5.4,10.1,73,0.00,,---,0.00,VWS V14.01,2013-05-06 20:02:00,
2013-05-06 16:07:00,58.1,49.5,30.15,East,84,8.3,11.0,73,0.00,,---,0.00,VWS V14.01,2013-05-06 20:07:00,
2013-05-06 16:12:00,58.1,49.1,30.15,NE,38,8.1,9.6,72,0.00,,---,0.00,VWS V14.01,2013-05-06 20:12:00,
2013-05-06 16:17:00,57.9,49.0,30.15,ENE,68,8.7,13.6,72,0.00,,---,0.00,VWS V14.01,2013-05-06 20:17:00,
2013-05-06 16:22:00,58.1,49.5,30.15,East,88,13.2,13.2,73,0.00,,---,0.00,VWS V14.01,2013-05-06 20:22:00,
2013-05-06 16:27:00,58.1,49.5,30.15,East,96,8.7,13.2,73,0.00,,---,0.00,VWS V14.01,2013-05-06 20:27:00,
2013-05-06 16:32:00,58.1,49.5,30.15,ENE,59,8.3,9.2,73,0.00,,---,0.00,VWS V14.01,2013-05-06 20:32:00,
2013-05-06 16:37:00,58.1,49.5,30.15,NE,54,8.1,15.0,73,0.00,,---,0.00,VWS V14.01,2013-05-06 20:37:00,
2013-05-06 16:42:00,57.9,49.3,30.15,ENE,76,12.3,16.8,73,0.00,,---,0.00,VWS V14.01,2013-05-06 20:42:00,
2013-05-06 16:47:00,57.9,49.0,30.15,East,83,11.0,12.8,72,0.00,,---,0.00,VWS V14.01,2013-05-06 20:47:00,
2013-05-06 16:52:00,57.9,49.3,30.15,East,82,10.5,15.4,73,0.00,,---,0.00,VWS V14.01,2013-05-06 20:52:00,
2013-05-06 16:57:00,57.9,49.3,30.15,East,83,11.0,11.0,73,0.00,,---,0.00,VWS V14.01,2013-05-06 20:57:00,
2013-05-06 17:02:00,57.9,49.3,30.15,ENE,59,12.3,13.2,73,0.00,,---,0.00,VWS V14.01,2013-05-06 21:02:00,
2013-05-06 17:07:00,57.7,49.2,30.15,ENE,58,11.9,11.9,73,0.00,,---,0.00,VWS V14.01,2013-05-06 21:07:00,
2013-05-06 17:12:00,57.7,49.2,30.15,ENE,59,13.2,13.2,73,0.00,,---,0.00,VWS V14.01,2013-05-06 21:12:00,
2013-05-06 17:17:00,57.6,49.3,30.15,ENE,74,12.8,12.8,74,0.00,,---,0.00,VWS V14.01,2013-05-06 21:17:00,
2013-05-06 17:22:00,57.2,49.0,30.15,NE,44,8.3,14.5,74,0.00,,---,0.00,VWS V14.01,2013-05-06 21:22:00,
2013-05-06 17:27:00,56.8,49.0,30.15,ENE,75,12.8,15.4,75,0.00,,---,0.00,VWS V14.01,2013-05-06 21:27:00,
2013-05-06 17:32:00,56.8,49.4,30.15,ENE,68,12.8,12.8,76,0.00,,---,0.00,VWS V14.01,2013-05-06 21:32:00,
2013-05-06 17:37:00,56.7,49.2,30.15,ENE,70,11.0,11.0,76,0.00,,---,0.00,VWS V14.01,2013-05-06 21:37:00,
2013-05-06 17:42:00,56.7,49.5,30.15,ENE,63,8.7,8.7,77,0.00,,---,0.00,VWS V14.01,2013-05-06 21:42:00,
2013-05-06 17:47:00,56.5,49.7,30.15,ESE,108,5.4,10.5,78,0.00,,---,0.00,VWS V14.01,2013-05-06 21:47:00,
2013-05-06 17:52:00,56.3,49.5,30.15,NE,50,10.5,10.5,78,0.00,,---,0.00,VWS V14.01,2013-05-06 21:52:00,
2013-05-06 17:57:00,56.3,49.9,30.15,ENE,59,8.1,10.5,79,0.00,,---,0.00,VWS V14.01,2013-05-06 21:57:00,
2013-05-06 18:02:00,56.3,49.9,30.15,East,96,5.8,11.0,79,0.00,,---,0.00,VWS V14.01,2013-05-06 22:02:00,
2013-05-06 18:07:00,56.3,49.9,30.15,ENE,70,8.7,12.8,79,0.00,,---,0.00,VWS V14.01,2013-05-06 22:07:00,
2013-05-06 18:12:00,55.9,49.5,30.15,ENE,69,8.3,12.8,79,0.00,,---,0.00,VWS V14.01,2013-05-06 22:12:00,
2013-05-06 18:18:00,56.1,50.0,30.15,ENE,68,11.4,11.4,80,0.00,,---,0.00,VWS V14.01,2013-05-06 22:18:00,
2013-05-06 18:23:00,55.9,49.9,30.15,NE,52,8.1,10.5,80,0.00,,---,0.00,VWS V14.01,2013-05-06 22:23:00,
2013-05-06 18:28:00,55.9,50.2,30.15,ENE,71,12.8,12.8,81,0.00,,---,0.00,VWS V14.01,2013-05-06 22:28:00,
2013-05-06 18:33:00,55.8,50.0,30.15,ENE,76,8.1,10.5,81,0.00,,---,0.00,VWS V14.01,2013-05-06 22:33:00,
2013-05-06 18:38:00,55.6,49.8,30.15,NE,54,8.1,12.3,81,0.00,,---,0.00,VWS V14.01,2013-05-06 22:38:00,
2013-05-06 18:43:00,55.2,49.8,30.15,ENE,59,8.3,12.3,82,0.00,,---,0.00,VWS V14.01,2013-05-06 22:43:00,
2013-05-06 18:48:00,55.2,49.8,30.15,ENE,61,11.0,12.3,82,0.00,,---,0.00,VWS V14.01,2013-05-06 22:48:00,
2013-05-06 18:53:00,55.0,49.7,30.15,NE,55,4.0,11.0,82,0.00,,---,0.00,VWS V14.01,2013-05-06 22:53:00,
2013-05-06 18:58:00,55.0,50.0,30.15,NE,52,8.7,11.9,83,0.00,,---,0.00,VWS V14.01,2013-05-06 22:58:00,
2013-05-06 19:03:00,54.9,49.8,30.15,ENE,65,8.7,10.5,83,0.00,,---,0.00,VWS V14.01,2013-05-06 23:03:00,
2013-05-06 19:08:00,54.9,49.8,30.15,NE,55,11.0,13.2,83,0.00,,---,0.00,VWS V14.01,2013-05-06 23:08:00,
2013-05-06 19:13:00,54.9,49.8,30.15,ENE,75,8.7,10.5,83,0.00,,---,0.00,VWS V14.01,2013-05-06 23:13:00,
2013-05-06 19:18:00,54.7,50.0,30.15,East,85,8.1,8.7,84,0.00,,---,0.00,VWS V14.01,2013-05-06 23:18:00,
2013-05-06 19:23:00,54.5,49.8,30.15,ENE,74,8.3,12.3,84,0.00,,---,0.00,VWS V14.01,2013-05-06 23:23:00,
2013-05-06 19:28:00,54.5,49.8,30.15,NE,55,8.3,10.1,84,0.00,,---,0.00,VWS V14.01,2013-05-06 23:28:00,
2013-05-06 19:33:00,54.3,49.9,30.15,NE,51,7.6,7.6,85,0.00,,---,0.00,VWS V14.01,2013-05-06 23:33:00,
2013-05-06 19:38:00,54.3,49.9,30.15,East,95,10.1,10.1,85,0.00,,---,0.00,VWS V14.01,2013-05-06 23:38:00,
2013-05-06 19:43:00,54.1,49.7,30.15,ENE,62,8.1,11.0,85,0.00,,---,0.00,VWS V14.01,2013-05-06 23:43:00,
2013-05-06 19:48:00,54.1,49.7,30.15,NE,55,5.8,11.0,85,0.00,,---,0.00,VWS V14.01,2013-05-06 23:48:00,
2013-05-06 19:53:00,54.1,49.7,30.15,ENE,59,5.4,9.6,85,0.00,,---,0.00,VWS V14.01,2013-05-06 23:53:00,
2013-05-06 19:58:00,54.1,50.0,30.15,NNE,32,8.3,12.8,86,0.00,,---,0.00,VWS V14.01,2013-05-06 23:58:00,
2013-05-06 20:03:00,54.0,49.9,30.15,ENE,64,7.6,7.6,86,0.00,,---,0.00,VWS V14.01,2013-05-07 00:03:00,
2013-05-06 20:08:00,54.0,49.9,30.15,ENE,74,8.3,8.3,86,0.00,,---,0.00,VWS V14.01,2013-05-07 00:08:00,
2013-05-06 20:13:00,54.0,50.2,30.15,ENE,74,12.3,12.3,87,0.00,,---,0.00,VWS V14.01,2013-05-07 00:13:00,
2013-05-06 20:18:00,54.0,50.2,30.15,ENE,75,8.7,11.0,87,0.00,,---,0.00,VWS V14.01,2013-05-07 00:18:00,
2013-05-06 20:23:00,54.0,50.2,30.15,East,82,8.3,8.3,87,0.00,,---,0.00,VWS V14.01,2013-05-07 00:23:00,
2013-05-06 20:28:00,53.8,50.3,30.15,ENE,70,8.7,10.5,88,0.00,,---,0.00,VWS V14.01,2013-05-07 00:28:00,
2013-05-06 20:33:00,53.8,50.3,30.15,ENE,59,8.3,8.3,88,0.00,,---,0.00,VWS V14.01,2013-05-07 00:33:00,
2013-05-06 20:38:00,53.8,50.3,30.15,ENE,71,5.4,5.4,88,0.00,,---,0.00,VWS V14.01,2013-05-07 00:38:00,
2013-05-06 20:43:00,53.6,50.4,30.15,ENE,60,8.3,10.1,89,0.00,,---,0.00,VWS V14.01,2013-05-07 00:43:00,
2013-05-06 20:48:00,53.6,50.4,30.15,East,81,8.7,8.7,89,0.00,,---,0.00,VWS V14.01,2013-05-07 00:48:00,
2013-05-06 20:53:00,53.6,50.4,30.15,ENE,63,6.3,8.3,89,0.00,,---,0.00,VWS V14.01,2013-05-07 00:53:00,
2013-05-06 20:58:00,53.6,50.4,30.15,ENE,72,8.1,8.1,89,0.00,,---,0.00,VWS V14.01,2013-05-07 00:58:00,
2013-05-06 21:03:00,53.4,50.6,30.15,East,82,6.3,6.3,90,0.00,,---,0.00,VWS V14.01,2013-05-07 01:03:00,
2013-05-06 21:08:00,53.4,50.6,30.15,ENE,74,9.2,9.2,90,0.00,,---,0.00,VWS V14.01,2013-05-07 01:08:00,
2013-05-06 21:13:00,53.4,50.6,30.15,East,83,9.6,9.6,90,0.00,,---,0.00,VWS V14.01,2013-05-07 01:13:00,
2013-05-06 21:18:00,53.2,50.4,30.15,ENE,71,4.5,6.7,90,0.00,,---,0.00,VWS V14.01,2013-05-07 01:18:00,
2013-05-06 21:23:00,53.2,50.4,30.15,East,93,8.1,8.1,90,0.00,,---,0.00,VWS V14.01,2013-05-07 01:23:00,
2013-05-06 21:28:00,53.2,50.4,30.15,ENE,58,5.4,8.1,90,0.00,,---,0.00,VWS V14.01,2013-05-07 01:28:00,
2013-05-06 21:33:00,53.1,50.2,30.15,East,92,8.3,8.3,90,0.00,,---,0.00,VWS V14.01,2013-05-07 01:33:00,
2013-05-06 21:38:00,53.1,50.2,30.15,ENE,75,11.0,11.0,90,0.00,,---,0.00,VWS V14.01,2013-05-07 01:38:00,
2013-05-06 21:43:00,53.1,50.2,30.15,East,91,12.8,12.8,90,0.00,,---,0.00,VWS V14.01,2013-05-07 01:43:00,
2013-05-06 21:48:00,53.1,50.2,30.15,East,95,12.3,12.3,90,0.00,,---,0.00,VWS V14.01,2013-05-07 01:48:00,
2013-05-06 21:53:00,53.1,49.9,30.15,NE,42,10.1,11.9,89,0.00,,---,0.00,VWS V14.01,2013-05-07 01:53:00,
2013-05-06 21:58:00,53.1,49.9,30.18,NE,55,5.8,7.6,89,0.00,,---,0.00,VWS V14.01,2013-05-07 01:58:00,
2013-05-06 22:03:00,52.9,49.7,30.18,ENE,75,5.8,6.7,89,0.00,,---,0.00,VWS V14.01,2013-05-07 02:03:00,
2013-05-06 22:08:00,52.9,49.7,30.18,ENE,66,10.5,10.5,89,0.00,,---,0.00,VWS V14.01,2013-05-07 02:08:00,
2013-05-06 22:13:00,52.9,49.7,30.15,ESE,111,8.7,8.7,89,0.00,,---,0.00,VWS V14.01,2013-05-07 02:13:00,
2013-05-06 22:18:00,52.9,49.4,30.15,ENE,69,13.2,13.2,88,0.00,,---,0.00,VWS V14.01,2013-05-07 02:18:00,
2013-05-06 22:23:00,52.9,49.4,30.15,NE,48,8.7,8.7,88,0.00,,---,0.00,VWS V14.01,2013-05-07 02:23:00,
2013-05-06 22:28:00,52.9,49.4,30.15,ENE,72,14.5,14.5,88,0.00,,---,0.00,VWS V14.01,2013-05-07 02:28:00,
2013-05-06 22:33:00,52.9,49.7,30.15,NE,52,10.1,10.1,89,0.00,,---,0.00,VWS V14.01,2013-05-07 02:33:00,
2013-05-06 22:38:00,52.9,49.7,30.15,ENE,65,7.6,8.3,89,0.00,,---,0.00,VWS V14.01,2013-05-07 02:38:00,
2013-05-06 22:43:00,52.9,49.7,30.15,ENE,60,8.3,8.3,89,0.00,,---,0.00,VWS V14.01,2013-05-07 02:43:00,
2013-05-06 22:48:00,52.9,49.7,30.15,East,95,7.6,10.1,89,0.00,,---,0.00,VWS V14.01,2013-05-07 02:48:00,
2013-05-06 22:53:00,52.9,50.0,30.15,ENE,69,7.2,8.7,90,0.00,,---,0.00,VWS V14.01,2013-05-07 02:53:00,
2013-05-06 22:58:00,52.7,49.8,30.15,East,88,8.3,10.1,90,0.00,,---,0.00,VWS V14.01,2013-05-07 02:58:00,
2013-05-06 23:03:00,52.7,49.8,30.15,NE,50,8.1,8.3,90,0.00,,---,0.00,VWS V14.01,2013-05-07 03:03:00,
2013-05-06 23:08:00,52.7,49.8,30.15,East,100,4.9,8.3,90,0.00,,---,0.00,VWS V14.01,2013-05-07 03:08:00,
2013-05-06 23:13:00,52.7,50.2,30.15,East,81,8.1,11.4,91,0.00,,---,0.00,VWS V14.01,2013-05-07 03:13:00,
2013-05-06 23:18:00,52.7,50.2,30.15,East,82,8.3,8.3,91,0.00,,---,0.00,VWS V14.01,2013-05-07 03:18:00,
2013-05-06 23:23:00,52.7,50.2,30.15,ESE,103,10.5,11.4,91,0.00,,---,0.00,VWS V14.01,2013-05-07 03:23:00,
2013-05-06 23:28:00,52.7,50.2,30.15,NE,45,8.7,10.1,91,0.00,,---,0.00,VWS V14.01,2013-05-07 03:28:00,
2013-05-06 23:33:00,52.7,50.2,30.15,ENE,76,8.3,9.6,91,0.00,,---,0.00,VWS V14.01,2013-05-07 03:33:00,
2013-05-06 23:38:00,52.7,50.2,30.15,East,88,10.1,10.1,91,0.00,,---,0.00,VWS V14.01,2013-05-07 03:38:00,
2013-05-06 23:43:00,52.7,50.5,30.15,ENE,72,5.8,8.1,92,0.00,,---,0.00,VWS V14.01,2013-05-07 03:43:00,
2013-05-06 23:48:00,52.7,50.5,30.15,East,85,8.3,10.1,92,0.00,,---,0.00,VWS V14.01,2013-05-07 03:48:00,
2013-05-06 23:53:00,52.7,50.5,30.15,ENE,72,3.6,6.3,92,0.00,,---,0.00,VWS V14.01,2013-05-07 03:53:00,
2013-05-06 23:58:00,52.7,50.5,30.15,ENE,61,5.8,6.3,92,0.00,,---,0.00,VWS V14.01,2013-05-07 03:58:00,